THA828 VTBS-VTSM
Flight info
| Callsign | THA828 |
|---|---|
| Flight time | 0h 39m |
| Altitude | 35000 |
| Route | KASNI1J KASNI M757 MABKO W33 UPNEP |
| Aircraft | B77W/H-SDE1E2E3FGHIJ2J3J4J5M1RWXY/LB1D1 |
Departure
| Time | 2026-04-26 08:31 |
|---|---|
| Airport | Suvarnabhumi Airport (VTBS) |
Arrival
| Time | 2026-04-26 09:10 |
|---|---|
| Airport | Samui International Airport (VTSM) |
| Time | Latitude | Longitude | Altitude | Speed | Heading |
|---|---|---|---|---|---|
| 2026-04-26 08:01 | 13.69092 | 100.75620 | 13 ft | 0 kts | 194° |
| 2026-04-26 08:24 | 13.69098 | 100.75622 | 13 ft | 2 kts | 194° |
| 2026-04-26 08:24 | 13.69112 | 100.75626 | 13 ft | 2 kts | 194° |
| 2026-04-26 08:24 | 13.69127 | 100.75629 | 13 ft | 2 kts | 194° |
| 2026-04-26 08:25 | 13.69137 | 100.75632 | 13 ft | 2 kts | 191° |
| 2026-04-26 08:25 | 13.69151 | 100.75632 | 13 ft | 2 kts | 162° |
| 2026-04-26 08:25 | 13.69164 | 100.75624 | 13 ft | 2 kts | 138° |
| 2026-04-26 08:25 | 13.69173 | 100.75613 | 13 ft | 2 kts | 114° |
| 2026-04-26 08:26 | 13.69176 | 100.75604 | 13 ft | 1 kts | 104° |
| 2026-04-26 08:26 | 13.69177 | 100.75603 | 13 ft | 0 kts | 104° |
| 2026-04-26 08:27 | 13.69175 | 100.75611 | 13 ft | 4 kts | 104° |
| 2026-04-26 08:28 | 13.69163 | 100.75658 | 13 ft | 7 kts | 104° |
| 2026-04-26 08:28 | 13.69148 | 100.75711 | 13 ft | 8 kts | 107° |
| 2026-04-26 08:28 | 13.69133 | 100.75769 | 13 ft | 8 kts | 105° |
| 2026-04-26 08:28 | 13.69117 | 100.75828 | 13 ft | 8 kts | 105° |
| 2026-04-26 08:29 | 13.69098 | 100.75905 | 13 ft | 11 kts | 104° |
| 2026-04-26 08:29 | 13.69086 | 100.75953 | 13 ft | 0 kts | 103° |
| 2026-04-26 08:29 | 13.69083 | 100.75967 | 13 ft | 5 kts | 103° |
| 2026-04-26 08:29 | 13.69065 | 100.76035 | 13 ft | 11 kts | 116° |
| 2026-04-26 08:30 | 13.68998 | 100.76057 | 13 ft | 11 kts | 193° |
| 2026-04-26 08:30 | 13.68961 | 100.76047 | 13 ft | 0 kts | 193° |
| 2026-04-26 08:30 | 13.68875 | 100.76026 | 13 ft | 51 kts | 194° |
| 2026-04-26 08:30 | 13.68145 | 100.75836 | 15 ft | 159 kts | 194° |
| 2026-04-26 08:31 | 13.66900 | 100.75501 | 666 ft | 202 kts | 194° |
| 2026-04-26 08:31 | 13.65631 | 100.75310 | 2304 ft | 180 kts | 183° |
| 2026-04-26 08:31 | 13.64361 | 100.75282 | 3079 ft | 193 kts | 181° |
| 2026-04-26 08:31 | 13.62963 | 100.75262 | 3845 ft | 209 kts | 180° |
| 2026-04-26 08:32 | 13.61475 | 100.75243 | 4639 ft | 225 kts | 180° |
| 2026-04-26 08:32 | 13.59836 | 100.75249 | 5394 ft | 243 kts | 173° |
| 2026-04-26 08:32 | 13.58167 | 100.75735 | 6133 ft | 262 kts | 159° |
| 2026-04-26 08:32 | 13.56379 | 100.76391 | 7029 ft | 276 kts | 162° |
| 2026-04-26 08:33 | 13.54542 | 100.76969 | 8103 ft | 282 kts | 163° |
| 2026-04-26 08:33 | 13.52663 | 100.77486 | 9340 ft | 285 kts | 171° |
| 2026-04-26 08:33 | 13.50715 | 100.77441 | 10639 ft | 285 kts | 190° |
| 2026-04-26 08:33 | 13.48797 | 100.77036 | 11882 ft | 286 kts | 192° |
| 2026-04-26 08:34 | 13.46858 | 100.76599 | 12918 ft | 292 kts | 192° |
| 2026-04-26 08:34 | 13.44802 | 100.76135 | 13584 ft | 311 kts | 192° |
| 2026-04-26 08:34 | 13.42630 | 100.75644 | 14159 ft | 333 kts | 192° |
| 2026-04-26 08:34 | 13.40247 | 100.75105 | 14795 ft | 354 kts | 192° |
| 2026-04-26 08:35 | 13.37790 | 100.74548 | 15471 ft | 372 kts | 192° |
| 2026-04-26 08:35 | 13.35103 | 100.73940 | 15778 ft | 401 kts | 192° |
| 2026-04-26 08:35 | 13.32320 | 100.73311 | 15793 ft | 411 kts | 192° |
| 2026-04-26 08:35 | 13.29461 | 100.72665 | 15848 ft | 425 kts | 192° |
| 2026-04-26 08:36 | 13.26561 | 100.72009 | 16824 ft | 430 kts | 192° |
| 2026-04-26 08:36 | 13.23659 | 100.71353 | 18165 ft | 425 kts | 192° |
| 2026-04-26 08:36 | 13.20766 | 100.70699 | 19174 ft | 428 kts | 192° |
| 2026-04-26 08:36 | 13.17814 | 100.70033 | 19883 ft | 439 kts | 192° |
| 2026-04-26 08:37 | 13.14779 | 100.69347 | 20672 ft | 447 kts | 192° |
| 2026-04-26 08:37 | 13.11746 | 100.68662 | 21485 ft | 454 kts | 192° |
| 2026-04-26 08:37 | 13.08616 | 100.68007 | 22338 ft | 459 kts | 188° |
| 2026-04-26 08:37 | 13.05437 | 100.67750 | 23148 ft | 464 kts | 182° |
| 2026-04-26 08:38 | 13.02160 | 100.67656 | 23900 ft | 471 kts | 181° |
| 2026-04-26 08:38 | 12.98835 | 100.67574 | 24646 ft | 478 kts | 181° |
| 2026-04-26 08:38 | 12.95510 | 100.67490 | 25430 ft | 483 kts | 181° |
| 2026-04-26 08:38 | 12.92094 | 100.67404 | 26177 ft | 490 kts | 181° |
| 2026-04-26 08:39 | 12.88611 | 100.67316 | 26913 ft | 496 kts | 181° |
| 2026-04-26 08:39 | 12.85117 | 100.67226 | 27615 ft | 502 kts | 181° |
| 2026-04-26 08:39 | 12.81577 | 100.67134 | 28312 ft | 509 kts | 181° |
| 2026-04-26 08:39 | 12.77990 | 100.67041 | 28990 ft | 515 kts | 181° |
| 2026-04-26 08:40 | 12.74390 | 100.66948 | 29869 ft | 516 kts | 181° |
| 2026-04-26 08:40 | 12.70807 | 100.66855 | 30973 ft | 511 kts | 182° |
| 2026-04-26 08:40 | 12.67261 | 100.66763 | 32140 ft | 503 kts | 182° |
| 2026-04-26 08:40 | 12.63806 | 100.66673 | 33175 ft | 498 kts | 182° |
| 2026-04-26 08:41 | 12.60346 | 100.66582 | 34161 ft | 496 kts | 182° |
| 2026-04-26 08:41 | 12.56816 | 100.66491 | 34771 ft | 495 kts | 182° |
| 2026-04-26 08:41 | 12.49845 | 100.66309 | 34819 ft | 504 kts | 182° |
| 2026-04-26 08:42 | 12.46126 | 100.66211 | 34823 ft | 517 kts | 182° |
| 2026-04-26 08:42 | 12.42431 | 100.66114 | 34817 ft | 527 kts | 182° |
| 2026-04-26 08:42 | 12.35019 | 100.65922 | 34818 ft | 528 kts | 182° |
| 2026-04-26 08:43 | 12.27645 | 100.65730 | 34823 ft | 528 kts | 182° |
| 2026-04-26 08:43 | 12.20215 | 100.65537 | 34825 ft | 527 kts | 182° |
| 2026-04-26 08:44 | 12.12863 | 100.65346 | 34823 ft | 525 kts | 182° |
| 2026-04-26 08:44 | 12.05503 | 100.65154 | 34826 ft | 526 kts | 182° |
| 2026-04-26 08:45 | 11.98034 | 100.64964 | 34828 ft | 528 kts | 182° |
| 2026-04-26 08:45 | 11.90710 | 100.64779 | 34828 ft | 526 kts | 181° |
| 2026-04-26 08:46 | 11.83254 | 100.64590 | 34825 ft | 528 kts | 181° |
| 2026-04-26 08:46 | 11.75938 | 100.64406 | 34825 ft | 525 kts | 181° |
| 2026-04-26 08:47 | 11.68611 | 100.64220 | 34825 ft | 526 kts | 181° |
| 2026-04-26 08:47 | 11.61221 | 100.64033 | 34826 ft | 525 kts | 181° |
| 2026-04-26 08:48 | 11.53826 | 100.63847 | 34826 ft | 526 kts | 181° |
| 2026-04-26 08:48 | 11.46476 | 100.63661 | 34827 ft | 526 kts | 181° |
| 2026-04-26 08:49 | 11.39140 | 100.63477 | 34827 ft | 525 kts | 181° |
| 2026-04-26 08:49 | 11.31760 | 100.63290 | 34827 ft | 526 kts | 181° |
| 2026-04-26 08:50 | 11.24360 | 100.63103 | 34827 ft | 525 kts | 181° |
| 2026-04-26 08:50 | 11.17016 | 100.62919 | 34827 ft | 525 kts | 181° |
| 2026-04-26 08:51 | 11.05927 | 100.62556 | 34831 ft | 524 kts | 184° |
| 2026-04-26 08:52 | 10.98672 | 100.61862 | 34053 ft | 512 kts | 185° |
| 2026-04-26 08:52 | 10.95135 | 100.61515 | 32762 ft | 508 kts | 185° |
| 2026-04-26 08:52 | 10.91609 | 100.61169 | 31712 ft | 501 kts | 185° |
| 2026-04-26 08:52 | 10.88095 | 100.60825 | 30957 ft | 496 kts | 184° |
| 2026-04-26 08:53 | 10.84644 | 100.60487 | 30304 ft | 493 kts | 184° |
| 2026-04-26 08:53 | 10.81259 | 100.60156 | 29739 ft | 489 kts | 184° |
| 2026-04-26 08:53 | 10.77891 | 100.59826 | 29070 ft | 487 kts | 184° |
| 2026-04-26 08:53 | 10.74525 | 100.59496 | 28459 ft | 483 kts | 184° |
| 2026-04-26 08:54 | 10.71190 | 100.59170 | 27904 ft | 479 kts | 184° |
| 2026-04-26 08:54 | 10.67858 | 100.58844 | 27350 ft | 475 kts | 184° |
| 2026-04-26 08:54 | 10.64595 | 100.58525 | 26795 ft | 471 kts | 184° |
| 2026-04-26 08:54 | 10.61300 | 100.58202 | 26100 ft | 471 kts | 184° |
| 2026-04-26 08:55 | 10.58063 | 100.57886 | 25436 ft | 469 kts | 184° |
| 2026-04-26 08:55 | 10.54789 | 100.57566 | 24827 ft | 466 kts | 184° |
| 2026-04-26 08:55 | 10.51535 | 100.57249 | 24235 ft | 462 kts | 184° |
| 2026-04-26 08:55 | 10.48374 | 100.56940 | 23562 ft | 453 kts | 184° |
| 2026-04-26 08:56 | 10.45279 | 100.56636 | 23029 ft | 437 kts | 184° |
| 2026-04-26 08:56 | 10.42266 | 100.56341 | 22411 ft | 425 kts | 184° |
| 2026-04-26 08:56 | 10.39289 | 100.56052 | 21810 ft | 441 kts | 184° |
| 2026-04-26 08:56 | 10.36201 | 100.55751 | 21078 ft | 443 kts | 184° |
| 2026-04-26 08:57 | 10.33161 | 100.55454 | 20455 ft | 441 kts | 184° |
| 2026-04-26 08:57 | 10.30085 | 100.55154 | 19853 ft | 438 kts | 184° |
| 2026-04-26 08:57 | 10.26947 | 100.54685 | 19381 ft | 432 kts | 193° |
| 2026-04-26 08:57 | 10.24152 | 100.53755 | 19116 ft | 421 kts | 202° |
| 2026-04-26 08:58 | 10.21523 | 100.52361 | 18721 ft | 414 kts | 212° |
| 2026-04-26 08:58 | 10.19224 | 100.50622 | 18232 ft | 410 kts | 220° |
| 2026-04-26 08:58 | 10.17086 | 100.48762 | 17715 ft | 399 kts | 221° |
| 2026-04-26 08:58 | 10.15012 | 100.46944 | 17394 ft | 384 kts | 221° |
| 2026-04-26 08:59 | 10.13018 | 100.45197 | 17183 ft | 368 kts | 221° |
| 2026-04-26 08:59 | 10.11119 | 100.43532 | 16657 ft | 360 kts | 221° |
| 2026-04-26 08:59 | 10.09230 | 100.41876 | 15923 ft | 358 kts | 221° |
| 2026-04-26 08:59 | 10.07345 | 100.40225 | 15465 ft | 346 kts | 221° |
| 2026-04-26 09:00 | 10.05560 | 100.38662 | 15214 ft | 330 kts | 221° |
| 2026-04-26 09:00 | 10.03857 | 100.37170 | 14982 ft | 314 kts | 221° |
| 2026-04-26 09:00 | 10.02229 | 100.35744 | 14390 ft | 312 kts | 221° |
| 2026-04-26 09:00 | 10.00579 | 100.34299 | 13705 ft | 312 kts | 221° |
| 2026-04-26 09:01 | 9.98942 | 100.32866 | 13120 ft | 308 kts | 220° |
| 2026-04-26 09:01 | 9.97333 | 100.31458 | 12556 ft | 303 kts | 220° |
| 2026-04-26 09:01 | 9.95755 | 100.30076 | 11957 ft | 301 kts | 220° |
| 2026-04-26 09:01 | 9.94186 | 100.28702 | 11598 ft | 289 kts | 220° |
| 2026-04-26 09:02 | 9.92717 | 100.27415 | 11426 ft | 272 kts | 220° |
| 2026-04-26 09:02 | 9.91318 | 100.26191 | 11311 ft | 254 kts | 220° |
| 2026-04-26 09:02 | 9.89953 | 100.24996 | 11078 ft | 247 kts | 219° |
| 2026-04-26 09:02 | 9.88633 | 100.23841 | 10741 ft | 248 kts | 219° |
| 2026-04-26 09:03 | 9.87333 | 100.22704 | 10467 ft | 245 kts | 219° |
| 2026-04-26 09:03 | 9.86044 | 100.21576 | 10129 ft | 248 kts | 219° |
| 2026-04-26 09:03 | 9.84651 | 100.20360 | 9422 ft | 266 kts | 219° |
| 2026-04-26 09:03 | 9.83198 | 100.19092 | 8698 ft | 283 kts | 219° |
| 2026-04-26 09:04 | 9.81691 | 100.17775 | 8321 ft | 283 kts | 219° |
| 2026-04-26 09:04 | 9.80192 | 100.16464 | 7868 ft | 278 kts | 219° |
| 2026-04-26 09:04 | 9.78744 | 100.15198 | 7363 ft | 277 kts | 219° |
| 2026-04-26 09:04 | 9.77270 | 100.13909 | 6858 ft | 275 kts | 219° |
| 2026-04-26 09:05 | 9.75788 | 100.12614 | 6610 ft | 261 kts | 218° |
| 2026-04-26 09:05 | 9.74468 | 100.11458 | 6370 ft | 236 kts | 218° |
| 2026-04-26 09:05 | 9.73153 | 100.10481 | 5549 ft | 232 kts | 206° |
| 2026-04-26 09:05 | 9.71721 | 100.09783 | 4669 ft | 231 kts | 201° |
| 2026-04-26 09:06 | 9.70279 | 100.09129 | 3860 ft | 226 kts | 201° |
| 2026-04-26 09:06 | 9.68882 | 100.08493 | 3225 ft | 219 kts | 201° |
| 2026-04-26 09:06 | 9.67544 | 100.07878 | 3008 ft | 194 kts | 201° |
| 2026-04-26 09:06 | 9.66406 | 100.07354 | 2978 ft | 166 kts | 200° |
| 2026-04-26 09:07 | 9.65414 | 100.06900 | 2840 ft | 150 kts | 200° |
| 2026-04-26 09:07 | 9.64467 | 100.06467 | 2411 ft | 148 kts | 200° |
| 2026-04-26 09:07 | 9.63529 | 100.06039 | 1936 ft | 151 kts | 200° |
| 2026-04-26 09:07 | 9.62497 | 100.05617 | 1297 ft | 156 kts | 187° |
| 2026-04-26 09:08 | 9.61433 | 100.05614 | 1144 ft | 150 kts | 174° |
| 2026-04-26 09:08 | 9.60411 | 100.05684 | 938 ft | 147 kts | 174° |
| 2026-04-26 09:08 | 9.59405 | 100.05784 | 747 ft | 142 kts | 170° |
| 2026-04-26 09:08 | 9.58425 | 100.05903 | 627 ft | 139 kts | 172° |
| 2026-04-26 09:09 | 9.57461 | 100.05999 | 426 ft | 140 kts | 173° |
| 2026-04-26 09:09 | 9.56497 | 100.06084 | 214 ft | 132 kts | 172° |
| 2026-04-26 09:09 | 9.55545 | 100.06171 | 84 ft | 135 kts | 172° |
| 2026-04-26 09:09 | 9.54740 | 100.06257 | 70 ft | 77 kts | 175° |
| 2026-04-26 09:10 | 9.54462 | 100.06284 | 74 ft | 27 kts | 175° |
| 2026-04-26 09:10 | 9.54296 | 100.06302 | 82 ft | 20 kts | 175° |
| 2026-04-26 09:10 | 9.54165 | 100.06310 | 89 ft | 18 kts | 177° |
| 2026-04-26 09:10 | 9.54018 | 100.06318 | 93 ft | 21 kts | 188° |
| 2026-04-26 09:11 | 9.53916 | 100.06309 | 94 ft | 4 kts | 156° |
| 2026-04-26 09:11 | 9.53900 | 100.06324 | 93 ft | 1 kts | 118° |
| 2026-04-26 09:11 | 9.54011 | 100.06315 | 94 ft | 59 kts | 355° |
| 2026-04-26 09:11 | 9.54775 | 100.06247 | 71 ft | 135 kts | 354° |
| 2026-04-26 09:12 | 9.55260 | 100.06199 | 71 ft | 2 kts | 354° |
| 2026-04-26 09:12 | 9.55286 | 100.06196 | 70 ft | 4 kts | 354° |